Time;durP1;ratioP1;P1;durP2;ratioP2;P2;SDS_P1;SDS_P2;PMS_P1;PMS_P2;Temp;Humidity;BMP_temperature;BMP_pressure;BME280_temperature;BME280_humidity;BME280_pressure;Samples;Min_cycle;Max_cycle;Signal;HPM_P1;HPM_P2
2022/10/24 00:00:00;;;;;;;;;;;13.90;99.90;;;;;;5041255;28;19927;-73
2022/10/24 00:02:26;;;;;;;;;;;14.00;99.90;;;;;;5055186;28;20291;-73
2022/10/24 00:04:51;;;;;;;;;;;14.00;99.90;;;;;;5054716;28;20010;-74
2022/10/24 00:07:17;;;;;;;;;;;14.00;99.90;;;;;;5023953;28;19921;-72
2022/10/24 00:09:42;;;;;;;;;;;14.00;99.90;;;;;;5040961;28;20371;-72
2022/10/24 00:12:08;;;;;;;;;;;14.00;99.90;;;;;;5041550;28;19912;-72
2022/10/24 00:14:34;;;;;;;;;;;14.00;99.90;;;;;;5047552;28;20007;-72
2022/10/24 00:17:00;;;;;;;;;;;14.00;99.90;;;;;;5051667;28;20206;-73
2022/10/24 00:19:25;;;;;;;;;;;14.00;99.90;;;;;;5021926;28;19929;-73
2022/10/24 00:21:51;;;;;;;;;;;14.00;99.90;;;;;;5021799;28;20419;-75
2022/10/24 00:24:16;;;;;;;;;;;14.00;99.90;;;;;;5043103;28;20495;-73
2022/10/24 00:26:42;;;;;;;;;;;14.00;99.90;;;;;;5059766;28;20584;-73
2022/10/24 00:29:07;;;;;;;;;;;14.00;99.90;;;;;;5038698;28;19921;-71
2022/10/24 00:31:33;;;;;;;;;;;14.00;99.90;;;;;;5022156;28;19959;-72
2022/10/24 00:33:59;;;;;;;;;;;14.00;99.90;;;;;;5036349;28;19946;-72
2022/10/24 00:36:25;;;;;;;;;;;14.00;99.90;;;;;;5040597;28;20254;-72
2022/10/24 00:38:51;;;;;;;;;;;14.00;99.90;;;;;;5048327;28;20337;-73
2022/10/24 00:41:17;;;;;;;;;;;14.00;99.90;;;;;;5040202;28;19988;-73
2022/10/24 00:43:43;;;;;;;;;;;14.10;99.90;;;;;;5042468;28;19923;-74
2022/10/24 00:46:08;;;;;;;;;;;14.10;99.90;;;;;;5042181;28;19913;-74
2022/10/24 00:48:38;;;;;;;;;;;14.10;99.90;;;;;;5040891;28;19916;-72
2022/10/24 00:51:10;;;;;;;;;;;14.00;99.90;;;;;;5046995;28;19923;-74
2022/10/24 00:53:40;;;;;;;;;;;13.90;99.90;;;;;;5052929;28;20565;-74
2022/10/24 00:56:06;;;;;;;;;;;13.90;99.90;;;;;;5042230;28;20292;-73
2022/10/24 00:58:33;;;;;;;;;;;13.90;99.90;;;;;;5043829;28;20007;-73
2022/10/24 01:00:59;;;;;;;;;;;13.90;99.90;;;;;;5054748;28;19920;-73
2022/10/24 01:03:24;;;;;;;;;;;14.00;99.90;;;;;;5030414;28;19923;-74
2022/10/24 01:05:50;;;;;;;;;;;13.70;99.90;;;;;;5051044;28;19960;-72
2022/10/24 01:08:28;;;;;;;;;;;13.60;99.90;;;;;;5021403;28;20432;-74
2022/10/24 01:11:11;;;;;;;;;;;13.60;99.90;;;;;;5022316;28;19924;-74
2022/10/24 01:13:46;;;;;;;;;;;13.60;99.90;;;;;;5038036;28;19920;-73
2022/10/24 01:16:11;;;;;;;;;;;13.70;99.90;;;;;;5041885;28;19924;-73
2022/10/24 01:18:48;;;;;;;;;;;13.80;99.90;;;;;;5033931;28;19928;-73
2022/10/24 01:21:31;;;;;;;;;;;13.90;99.90;;;;;;5041464;28;19916;-72
2022/10/24 01:24:07;;;;;;;;;;;13.90;99.90;;;;;;5028988;28;20593;-76
2022/10/24 01:26:35;;;;;;;;;;;13.90;99.90;;;;;;5054956;28;19916;-73
2022/10/24 01:29:10;;;;;;;;;;;13.90;99.90;;;;;;5053274;28;20371;-74
2022/10/24 01:31:42;;;;;;;;;;;14.00;99.90;;;;;;5041979;28;20383;-73
2022/10/24 01:34:22;;;;;;;;;;;13.90;99.90;;;;;;5038185;28;19996;-74
2022/10/24 01:36:55;;;;;;;;;;;13.90;99.90;;;;;;5042185;28;19921;-74
2022/10/24 01:39:24;;;;;;;;;;;13.80;99.90;;;;;;5053384;28;19924;-74
2022/10/24 01:41:51;;;;;;;;;;;13.70;99.90;;;;;;5058965;28;19916;-75
2022/10/24 01:44:21;;;;;;;;;;;13.70;99.90;;;;;;5036550;28;20148;-74
2022/10/24 01:46:52;;;;;;;;;;;13.50;99.90;;;;;;5023501;28;19917;-73
2022/10/24 01:49:21;;;;;;;;;;;13.50;99.90;;;;;;5039430;28;20201;-73
2022/10/24 01:51:50;;;;;;;;;;;13.40;99.90;;;;;;5038747;28;19924;-74
2022/10/24 01:54:16;;;;;;;;;;;13.40;99.90;;;;;;5046247;28;20543;-73
2022/10/24 01:56:41;;;;;;;;;;;13.30;99.90;;;;;;5058170;28;20047;-75
2022/10/24 01:59:27;;;;;;;;;;;13.20;99.90;;;;;;5054577;28;19932;-73
2022/10/24 02:01:54;;;;;;;;;;;13.20;99.90;;;;;;5035538;28;19992;-73
2022/10/24 02:04:21;;;;;;;;;;;13.20;99.90;;;;;;5058756;28;20478;-73
2022/10/24 02:06:47;;;;;;;;;;;13.20;99.90;;;;;;5057440;28;19974;-73
2022/10/24 02:09:15;;;;;;;;;;;13.20;99.90;;;;;;5056557;28;20027;-74
2022/10/24 02:11:41;;;;;;;;;;;13.10;99.90;;;;;;5031486;28;19949;-74
2022/10/24 02:14:15;;;;;;;;;;;13.10;99.90;;;;;;5048035;28;19980;-74
2022/10/24 02:16:42;;;;;;;;;;;13.00;99.90;;;;;;5058735;28;19940;-73
2022/10/24 02:19:07;;;;;;;;;;;13.00;99.90;;;;;;5051674;28;20383;-74
2022/10/24 02:21:48;;;;;;;;;;;12.90;99.90;;;;;;5039656;28;19951;-73
2022/10/24 02:24:13;;;;;;;;;;;12.90;99.90;;;;;;5050691;28;19916;-73
2022/10/24 02:26:51;;;;;;;;;;;12.90;99.90;;;;;;5042366;28;20452;-73
2022/10/24 02:29:23;;;;;;;;;;;12.80;99.90;;;;;;5050657;28;19917;-74
2022/10/24 02:31:52;;;;;;;;;;;12.80;99.90;;;;;;5060376;28;20390;-74
2022/10/24 02:34:18;;;;;;;;;;;12.80;99.90;;;;;;5042452;28;20379;-73
2022/10/24 02:36:44;;;;;;;;;;;12.80;99.90;;;;;;5062595;28;19947;-73
2022/10/24 02:39:10;;;;;;;;;;;12.80;99.90;;;;;;5042726;28;20002;-74
2022/10/24 02:41:38;;;;;;;;;;;12.80;99.90;;;;;;5044060;28;19921;-73
2022/10/24 02:44:04;;;;;;;;;;;12.70;99.90;;;;;;5036868;28;19917;-74
2022/10/24 02:46:31;;;;;;;;;;;12.70;99.90;;;;;;5031788;28;19923;-74
2022/10/24 02:48:57;;;;;;;;;;;12.70;99.90;;;;;;5052638;28;19940;-75
2022/10/24 02:51:25;;;;;;;;;;;12.70;99.90;;;;;;5049452;28;20390;-74
2022/10/24 02:53:51;;;;;;;;;;;12.80;99.90;;;;;;5062887;28;19935;-74
2022/10/24 02:56:16;;;;;;;;;;;12.80;99.90;;;;;;5062253;28;20363;-74
2022/10/24 02:58:42;;;;;;;;;;;12.80;99.90;;;;;;5047931;28;19924;-73
2022/10/24 03:01:07;;;;;;;;;;;12.80;99.90;;;;;;5054333;28;19972;-74
2022/10/24 03:03:33;;;;;;;;;;;12.80;99.90;;;;;;5037553;28;19917;-75
2022/10/24 03:05:59;;;;;;;;;;;12.80;99.90;;;;;;5061864;28;19928;-74
2022/10/24 03:08:24;;;;;;;;;;;12.70;99.90;;;;;;5061832;28;19913;-75
2022/10/24 03:10:50;;;;;;;;;;;12.70;99.90;;;;;;5061875;28;19946;-73
2022/10/24 03:13:15;;;;;;;;;;;12.70;99.90;;;;;;5059979;28;19916;-74
2022/10/24 03:15:41;;;;;;;;;;;12.60;99.90;;;;;;5061926;28;20331;-74
2022/10/24 03:18:06;;;;;;;;;;;12.60;99.90;;;;;;5044139;28;20369;-74
2022/10/24 03:20:31;;;;;;;;;;;12.50;99.90;;;;;;5044725;28;19916;-74
2022/10/24 03:22:57;;;;;;;;;;;12.50;99.90;;;;;;5044193;28;19932;-74
2022/10/24 03:25:22;;;;;;;;;;;12.40;99.90;;;;;;5039961;28;19979;-74
2022/10/24 03:27:48;;;;;;;;;;;12.40;99.90;;;;;;5040575;28;19912;-74
2022/10/24 03:30:13;;;;;;;;;;;12.30;99.90;;;;;;5036760;28;19971;-73
2022/10/24 03:32:39;;;;;;;;;;;12.30;99.90;;;;;;5039998;28;19920;-74
2022/10/24 03:35:05;;;;;;;;;;;12.30;99.90;;;;;;5032041;28;19917;-73
2022/10/24 03:37:30;;;;;;;;;;;12.30;99.90;;;;;;5032075;28;20411;-73
2022/10/24 03:39:55;;;;;;;;;;;12.30;99.90;;;;;;5034159;28;19921;-72
2022/10/24 03:42:21;;;;;;;;;;;12.30;99.90;;;;;;5023785;28;19916;-73
2022/10/24 03:44:46;;;;;;;;;;;12.30;99.90;;;;;;5039936;28;19923;-72
2022/10/24 03:47:12;;;;;;;;;;;12.30;99.90;;;;;;5022373;28;19921;-72
2022/10/24 03:49:37;;;;;;;;;;;12.30;99.90;;;;;;5019542;28;20031;-72
2022/10/24 03:52:03;;;;;;;;;;;12.40;99.90;;;;;;5023769;28;19917;-73
2022/10/24 03:54:29;;;;;;;;;;;12.30;99.90;;;;;;5022782;28;20383;-72
2022/10/24 03:56:54;;;;;;;;;;;12.30;99.90;;;;;;5039274;28;19944;-72
2022/10/24 03:59:20;;;;;;;;;;;12.20;99.90;;;;;;5038442;28;19925;-73
2022/10/24 04:01:45;;;;;;;;;;;12.10;99.90;;;;;;5038755;28;20380;-73
2022/10/24 04:04:11;;;;;;;;;;;12.10;99.90;;;;;;5022010;28;20325;-73
2022/10/24 04:06:36;;;;;;;;;;;12.10;99.90;;;;;;5017425;28;20024;-72
2022/10/24 04:09:02;;;;;;;;;;;12.10;99.90;;;;;;5026203;28;19917;-72
2022/10/24 04:11:28;;;;;;;;;;;12.10;99.90;;;;;;5018057;28;20132;-72
2022/10/24 04:13:53;;;;;;;;;;;12.10;99.90;;;;;;5011096;28;20512;-72
2022/10/24 04:16:19;;;;;;;;;;;12.10;99.90;;;;;;4999518;28;19914;-73
2022/10/24 04:18:45;;;;;;;;;;;12.00;99.90;;;;;;5013352;28;20422;-73
2022/10/24 04:21:10;;;;;;;;;;;11.90;99.90;;;;;;5020710;28;19917;-72
2022/10/24 04:23:39;;;;;;;;;;;11.80;99.90;;;;;;5047129;28;20233;-73
2022/10/24 04:26:06;;;;;;;;;;;11.70;99.90;;;;;;5041229;28;19944;-73
2022/10/24 04:28:31;;;;;;;;;;;11.70;99.90;;;;;;5057360;28;19916;-72
2022/10/24 04:30:57;;;;;;;;;;;11.70;99.90;;;;;;5051005;28;20139;-72
2022/10/24 04:33:22;;;;;;;;;;;11.70;99.90;;;;;;5060727;28;19998;-73
2022/10/24 04:35:49;;;;;;;;;;;11.70;99.90;;;;;;5061410;28;20070;-73
2022/10/24 04:38:14;;;;;;;;;;;11.70;99.90;;;;;;5059534;28;19924;-72
2022/10/24 04:40:40;;;;;;;;;;;11.60;99.90;;;;;;5058612;28;19947;-74
2022/10/24 04:43:05;;;;;;;;;;;11.60;99.90;;;;;;5047982;28;19920;-72
2022/10/24 04:45:31;;;;;;;;;;;11.50;99.90;;;;;;5041263;28;19943;-73
2022/10/24 04:47:56;;;;;;;;;;;11.50;99.90;;;;;;5041327;28;19917;-72
2022/10/24 04:50:22;;;;;;;;;;;11.50;99.90;;;;;;5044024;28;20031;-73
2022/10/24 04:52:47;;;;;;;;;;;11.50;99.90;;;;;;5059102;28;20130;-73
2022/10/24 04:55:13;;;;;;;;;;;11.50;99.90;;;;;;5057661;28;19920;-72
2022/10/24 04:57:38;;;;;;;;;;;11.50;99.90;;;;;;5061350;28;19916;-72
2022/10/24 05:00:04;;;;;;;;;;;11.50;99.90;;;;;;5049596;28;19921;-73
2022/10/24 05:02:30;;;;;;;;;;;11.60;99.90;;;;;;5059171;28;20268;-73
2022/10/24 05:04:55;;;;;;;;;;;11.60;99.90;;;;;;5065316;28;19924;-72
2022/10/24 05:07:21;;;;;;;;;;;11.60;99.90;;;;;;5052638;28;19947;-73
2022/10/24 05:09:46;;;;;;;;;;;11.50;99.90;;;;;;5057626;28;19916;-72
2022/10/24 05:12:12;;;;;;;;;;;11.50;99.90;;;;;;5063049;28;19912;-72
2022/10/24 05:14:38;;;;;;;;;;;11.50;99.90;;;;;;5064605;28;20011;-72
2022/10/24 05:17:03;;;;;;;;;;;11.40;99.90;;;;;;5048436;28;20125;-72
2022/10/24 05:19:29;;;;;;;;;;;11.40;99.90;;;;;;5044880;28;19925;-72
2022/10/24 05:21:54;;;;;;;;;;;11.30;99.90;;;;;;5044034;28;20357;-72
2022/10/24 05:24:20;;;;;;;;;;;11.30;99.90;;;;;;5026250;28;19917;-73
2022/10/24 05:26:45;;;;;;;;;;;11.30;99.90;;;;;;5044241;28;19927;-72
2022/10/24 05:29:11;;;;;;;;;;;11.30;99.90;;;;;;5049754;28;19938;-72
2022/10/24 05:31:36;;;;;;;;;;;11.20;99.90;;;;;;5062401;28;19916;-72
2022/10/24 05:34:02;;;;;;;;;;;11.30;99.90;;;;;;5057633;28;20414;-72
2022/10/24 05:36:27;;;;;;;;;;;11.30;99.90;;;;;;5044142;28;20019;-73
2022/10/24 05:38:53;;;;;;;;;;;11.30;99.90;;;;;;5043414;28;20360;-73
2022/10/24 05:41:18;;;;;;;;;;;11.40;99.90;;;;;;5050278;28;19917;-72
2022/10/24 05:43:44;;;;;;;;;;;11.40;99.90;;;;;;5039626;28;19917;-73
2022/10/24 05:46:09;;;;;;;;;;;11.40;99.90;;;;;;5041040;28;19917;-73
2022/10/24 05:48:35;;;;;;;;;;;11.40;99.90;;;;;;5036739;28;20073;-73
2022/10/24 05:51:00;;;;;;;;;;;11.30;99.90;;;;;;5036233;28;19924;-73
2022/10/24 05:53:26;;;;;;;;;;;11.30;99.90;;;;;;5024938;28;20380;-72
2022/10/24 05:55:51;;;;;;;;;;;11.30;99.90;;;;;;5037609;28;19921;-73
2022/10/24 05:58:21;;;;;;;;;;;11.20;99.90;;;;;;5038462;28;19927;-73
2022/10/24 06:00:47;;;;;;;;;;;11.20;99.90;;;;;;5056785;28;20009;-73
2022/10/24 06:03:12;;;;;;;;;;;11.20;99.90;;;;;;5054032;28;19913;-73
2022/10/24 06:05:38;;;;;;;;;;;11.20;99.90;;;;;;5043700;28;19975;-73
2022/10/24 06:08:03;;;;;;;;;;;11.10;99.90;;;;;;5043158;28;19978;-73
2022/10/24 06:10:29;;;;;;;;;;;11.10;99.90;;;;;;5047310;28;19921;-72
2022/10/24 06:12:54;;;;;;;;;;;11.20;99.90;;;;;;5046173;28;19921;-72
2022/10/24 06:15:20;;;;;;;;;;;11.20;99.90;;;;;;5047521;28;19933;-73
2022/10/24 06:17:45;;;;;;;;;;;11.20;99.90;;;;;;5046487;28;20029;-73
2022/10/24 06:20:11;;;;;;;;;;;11.20;99.90;;;;;;5046665;28;20073;-73
2022/10/24 06:22:37;;;;;;;;;;;11.30;99.90;;;;;;5044461;28;19968;-72
2022/10/24 06:25:02;;;;;;;;;;;11.30;99.90;;;;;;5048351;28;20020;-73
2022/10/24 06:27:28;;;;;;;;;;;11.40;99.90;;;;;;5049666;28;19991;-73
2022/10/24 06:29:53;;;;;;;;;;;11.40;99.90;;;;;;5050606;28;19942;-74
2022/10/24 06:32:19;;;;;;;;;;;11.50;99.90;;;;;;5044026;28;19945;-73
2022/10/24 06:34:44;;;;;;;;;;;11.50;99.90;;;;;;5052181;28;19917;-74
2022/10/24 06:37:10;;;;;;;;;;;11.60;99.90;;;;;;5059433;28;19958;-74
2022/10/24 06:39:35;;;;;;;;;;;11.60;99.90;;;;;;5051294;28;19924;-73
2022/10/24 06:42:01;;;;;;;;;;;11.60;99.90;;;;;;5046557;28;20722;-73
2022/10/24 06:44:26;;;;;;;;;;;11.60;99.90;;;;;;5038450;28;19999;-74
2022/10/24 06:46:52;;;;;;;;;;;11.50;99.90;;;;;;5047661;28;20019;-74
2022/10/24 06:49:17;;;;;;;;;;;11.50;99.90;;;;;;5039229;28;19964;-73
2022/10/24 06:51:43;;;;;;;;;;;11.60;99.90;;;;;;5040047;28;20380;-75
2022/10/24 06:54:09;;;;;;;;;;;11.60;99.90;;;;;;5042142;28;20730;-73
2022/10/24 06:56:34;;;;;;;;;;;11.70;99.90;;;;;;5033378;28;20008;-73
2022/10/24 06:59:00;;;;;;;;;;;11.70;99.90;;;;;;5032107;28;19929;-74
2022/10/24 07:01:26;;;;;;;;;;;11.80;99.90;;;;;;5036382;28;20833;-74
2022/10/24 07:03:52;;;;;;;;;;;11.80;99.90;;;;;;5036391;28;19917;-73
2022/10/24 07:06:22;;;;;;;;;;;11.80;99.90;;;;;;5046362;28;19986;-74
2022/10/24 07:08:48;;;;;;;;;;;11.90;99.90;;;;;;5036375;28;19920;-74
2022/10/24 07:11:14;;;;;;;;;;;11.80;99.90;;;;;;5038316;28;19917;-73
2022/10/24 07:13:39;;;;;;;;;;;11.80;99.90;;;;;;5039512;28;19923;-76
2022/10/24 07:16:05;;;;;;;;;;;11.80;99.90;;;;;;5049762;28;19917;-74
2022/10/24 07:18:31;;;;;;;;;;;11.80;99.90;;;;;;5043883;28;19935;-73
2022/10/24 07:21:00;;;;;;;;;;;11.90;99.90;;;;;;5045110;28;19916;-74
2022/10/24 07:23:25;;;;;;;;;;;12.00;99.90;;;;;;5028817;28;19929;-75
2022/10/24 07:25:51;;;;;;;;;;;12.20;99.90;;;;;;5014052;28;19928;-75
2022/10/24 07:28:17;;;;;;;;;;;12.40;99.90;;;;;;5025054;28;19924;-73
2022/10/24 07:30:43;;;;;;;;;;;12.60;99.90;;;;;;5025080;28;19921;-72
2022/10/24 07:33:08;;;;;;;;;;;12.70;99.90;;;;;;5026595;28;19917;-73
2022/10/24 07:35:34;;;;;;;;;;;12.80;99.90;;;;;;5033049;28;19917;-74
2022/10/24 07:37:59;;;;;;;;;;;12.80;99.90;;;;;;5022088;28;19932;-73
2022/10/24 07:40:25;;;;;;;;;;;12.90;99.90;;;;;;5026998;28;19917;-73
2022/10/24 07:42:50;;;;;;;;;;;12.90;99.90;;;;;;5023304;28;19932;-73
2022/10/24 07:45:16;;;;;;;;;;;12.80;99.90;;;;;;5007315;28;20011;-73
2022/10/24 07:47:42;;;;;;;;;;;12.80;99.90;;;;;;5021304;28;20428;-73
2022/10/24 07:50:07;;;;;;;;;;;12.90;99.90;;;;;;5020840;28;20063;-73
2022/10/24 07:52:33;;;;;;;;;;;12.90;99.90;;;;;;5031158;28;19921;-73
2022/10/24 07:54:58;;;;;;;;;;;13.00;99.90;;;;;;5022958;28;19967;-73
2022/10/24 07:57:24;;;;;;;;;;;13.10;99.90;;;;;;5013142;28;19924;-73
2022/10/24 07:59:49;;;;;;;;;;;13.20;99.90;;;;;;5016125;28;19998;-73
2022/10/24 08:02:15;;;;;;;;;;;13.30;99.90;;;;;;5017734;28;19917;-73
2022/10/24 08:04:41;;;;;;;;;;;13.40;99.90;;;;;;5014166;28;19921;-73
2022/10/24 08:07:11;;;;;;;;;;;13.40;99.90;;;;;;5016928;28;20419;-73
2022/10/24 08:09:38;;;;;;;;;;;13.50;99.90;;;;;;5014938;28;20011;-74
2022/10/24 08:12:03;;;;;;;;;;;13.50;99.90;;;;;;5028710;28;19978;-73
2022/10/24 08:14:29;;;;;;;;;;;13.80;99.90;;;;;;5022889;28;19921;-73
2022/10/24 08:16:54;;;;;;;;;;;14.00;99.90;;;;;;5027479;28;20384;-74
2022/10/24 08:19:20;;;;;;;;;;;15.20;99.90;;;;;;5007351;28;19929;-73
2022/10/24 08:21:45;;;;;;;;;;;15.60;99.90;;;;;;5012096;28;19921;-74
2022/10/24 08:24:11;;;;;;;;;;;15.60;99.90;;;;;;5012994;28;19917;-73
2022/10/24 08:26:39;;;;;;;;;;;15.70;99.90;;;;;;5015975;28;19917;-73
2022/10/24 08:29:09;;;;;;;;;;;15.40;99.90;;;;;;5012252;28;19964;-73
2022/10/24 08:31:35;;;;;;;;;;;15.30;99.90;;;;;;5015284;28;19949;-73
2022/10/24 08:34:02;;;;;;;;;;;15.10;99.90;;;;;;5024315;28;19917;-73
2022/10/24 08:36:29;;;;;;;;;;;14.80;99.90;;;;;;5016736;28;19979;-72
2022/10/24 08:38:55;;;;;;;;;;;14.70;99.90;;;;;;5029761;28;19920;-73
2022/10/24 08:41:24;;;;;;;;;;;14.60;99.90;;;;;;5029463;28;20158;-73
2022/10/24 08:43:50;;;;;;;;;;;14.50;99.90;;;;;;5019975;28;20375;-72
2022/10/24 08:46:44;;;;;;;;;;;14.50;99.90;;;;;;5034552;28;19966;-73
2022/10/24 08:49:22;;;;;;;;;;;14.60;99.90;;;;;;5004142;28;20004;-73
2022/10/24 08:51:57;;;;;;;;;;;14.60;99.90;;;;;;5017535;28;19924;-73
2022/10/24 08:54:26;;;;;;;;;;;14.50;99.90;;;;;;5013941;28;20058;-73
2022/10/24 08:56:54;;;;;;;;;;;14.30;99.90;;;;;;5028259;28;19921;-72
2022/10/24 08:59:19;;;;;;;;;;;14.10;99.90;;;;;;5027101;28;19929;-72
2022/10/24 09:02:12;;;;;;;;;;;14.00;99.90;;;;;;5030209;28;19952;-72
2022/10/24 09:04:42;;;;;;;;;;;13.90;99.90;;;;;;5021041;28;20833;-74
2022/10/24 09:07:14;;;;;;;;;;;14.10;99.90;;;;;;5020369;28;19951;-72
2022/10/24 09:09:43;;;;;;;;;;;15.80;99.90;;;;;;5016867;28;19968;-73
2022/10/24 09:12:12;;;;;;;;;;;17.30;99.90;;;;;;5013223;28;19920;-74
2022/10/24 09:14:39;;;;;;;;;;;17.10;99.90;;;;;;5010053;28;21020;-73
2022/10/24 09:17:14;;;;;;;;;;;16.80;99.90;;;;;;5016902;28;20160;-73
2022/10/24 09:19:39;;;;;;;;;;;16.40;99.90;;;;;;5014136;28;19968;-74
2022/10/24 09:22:06;;;;;;;;;;;16.00;99.90;;;;;;5017487;28;19924;-74
2022/10/24 09:24:41;;;;;;;;;;;16.00;99.90;;;;;;5031473;28;19916;-74
2022/10/24 09:27:09;;;;;;;;;;;16.30;99.90;;;;;;5035207;28;19917;-74
2022/10/24 09:29:35;;;;;;;;;;;16.10;99.90;;;;;;5035453;28;19943;-72
2022/10/24 09:32:01;;;;;;;;;;;16.00;99.90;;;;;;5041373;28;19917;-73
2022/10/24 09:34:27;;;;;;;;;;;15.80;99.90;;;;;;5047591;28;20003;-72
2022/10/24 09:36:52;;;;;;;;;;;15.60;99.90;;;;;;5045419;28;20038;-73
2022/10/24 09:39:23;;;;;;;;;;;16.50;99.90;;;;;;5038713;28;20416;-73
2022/10/24 09:41:48;;;;;;;;;;;18.80;99.90;;;;;;5041302;28;19928;-73
2022/10/24 09:44:29;;;;;;;;;;;20.60;99.90;;;;;;5028116;28;19917;-73
2022/10/24 09:46:55;;;;;;;;;;;21.70;99.90;;;;;;5035869;28;20171;-73
2022/10/24 09:49:21;;;;;;;;;;;22.50;99.90;;;;;;5040485;28;19966;-73
2022/10/24 09:51:47;;;;;;;;;;;23.20;99.90;;;;;;5041877;28;20387;-72
2022/10/24 09:54:18;;;;;;;;;;;23.40;99.90;;;;;;5019654;28;19921;-72
2022/10/24 09:56:47;;;;;;;;;;;24.10;99.90;;;;;;5021925;28;19917;-73
2022/10/24 09:59:25;;;;;;;;;;;24.30;99.90;;;;;;5056492;28;20431;-72
2022/10/24 10:01:50;;;;;;;;;;;24.40;99.90;;;;;;5063129;28;19938;-74
2022/10/24 10:04:17;;;;;;;;;;;24.00;99.90;;;;;;5046320;28;20561;-73
2022/10/24 10:06:47;;;;;;;;;;;24.30;99.90;;;;;;5037085;28;19920;-75
2022/10/24 10:09:13;;;;;;;;;;;24.90;99.90;;;;;;5045905;28;20014;-73
2022/10/24 10:11:39;;;;;;;;;;;25.10;99.90;;;;;;5041571;28;19916;-73
2022/10/24 10:14:16;;;;;;;;;;;25.00;99.90;;;;;;5044870;28;19971;-73
2022/10/24 10:16:41;;;;;;;;;;;24.50;99.90;;;;;;5043120;28;19917;-74
2022/10/24 10:19:13;;;;;;;;;;;23.80;99.90;;;;;;5042348;28;20295;-73
2022/10/24 10:21:53;;;;;;;;;;;23.50;99.90;;;;;;5037847;28;19925;-73
2022/10/24 10:24:33;;;;;;;;;;;22.90;99.90;;;;;;5042390;28;20333;-73
2022/10/24 10:26:59;;;;;;;;;;;22.30;99.90;;;;;;5038723;28;20469;-73
2022/10/24 10:29:25;;;;;;;;;;;22.40;99.90;;;;;;5060347;28;20880;-74
2022/10/24 10:32:00;;;;;;;;;;;22.50;99.90;;;;;;4339042;28;10000618;-73
2022/10/24 10:34:29;;;;;;;;;;;22.00;99.90;;;;;;5032442;28;21244;-73
2022/10/24 10:36:57;;;;;;;;;;;21.40;99.90;;;;;;5034428;28;19916;-73
2022/10/24 10:39:40;;;;;;;;;;;21.60;99.90;;;;;;5039662;28;20367;-73
2022/10/24 10:42:11;;;;;;;;;;;21.30;99.90;;;;;;5041144;28;19924;-73
2022/10/24 10:44:47;;;;;;;;;;;22.10;99.90;;;;;;5041009;28;20554;-74
2022/10/24 10:47:16;;;;;;;;;;;22.90;99.90;;;;;;5040434;28;19917;-75
2022/10/24 10:49:41;;;;;;;;;;;22.90;99.90;;;;;;5042344;28;20414;-73
2022/10/24 10:52:11;;;;;;;;;;;23.50;99.90;;;;;;5035456;28;20019;-74
2022/10/24 10:54:51;;;;;;;;;;;24.90;99.90;;;;;;5034934;28;20003;-74
2022/10/24 10:57:21;;;;;;;;;;;25.80;99.90;;;;;;5033621;28;20162;-73
2022/10/24 10:59:56;;;;;;;;;;;25.80;99.90;;;;;;5040429;28;19985;-73
2022/10/24 11:02:39;;;;;;;;;;;25.80;99.90;;;;;;5042763;28;19935;-74
2022/10/24 11:05:05;;;;;;;;;;;26.00;99.90;;;;;;5045734;28;19938;-73
2022/10/24 11:07:33;;;;;;;;;;;26.00;99.90;;;;;;5040811;28;20476;-73
2022/10/24 11:10:01;;;;;;;;;;;25.30;99.90;;;;;;5048091;28;20122;-72
2022/10/24 11:12:33;;;;;;;;;;;24.80;99.90;;;;;;5041569;28;19939;-73
2022/10/24 11:15:17;;;;;;;;;;;24.30;99.90;;;;;;5041161;28;19917;-73
2022/10/24 11:17:49;;;;;;;;;;;23.80;99.90;;;;;;5051521;28;19954;-73
2022/10/24 11:20:20;;;;;;;;;;;23.70;99.90;;;;;;5036171;28;20008;-74
2022/10/24 11:22:49;;;;;;;;;;;23.50;99.90;;;;;;5037610;28;19929;-73
2022/10/24 11:25:24;;;;;;;;;;;22.90;99.90;;;;;;5027162;28;20324;-72
2022/10/24 11:27:53;;;;;;;;;;;22.70;99.90;;;;;;5013671;28;20041;-73
2022/10/24 11:30:19;;;;;;;;;;;22.60;99.90;;;;;;5013527;28;20284;-73
2022/10/24 11:32:53;;;;;;;;;;;22.50;99.90;;;;;;5011443;28;19967;-74
2022/10/24 11:35:23;;;;;;;;;;;21.90;99.90;;;;;;5012523;28;20410;-74
2022/10/24 11:37:49;;;;;;;;;;;21.10;99.90;;;;;;5008945;28;20007;-73
2022/10/24 11:40:20;;;;;;;;;;;20.40;99.90;;;;;;5024160;28;19948;-75
2022/10/24 11:43:15;;;;;;;;;;;19.90;99.90;;;;;;5022112;28;19936;-73
2022/10/24 11:45:59;;;;;;;;;;;19.50;99.90;;;;;;5010513;28;20557;-72
2022/10/24 11:48:57;;;;;;;;;;;19.50;99.90;;;;;;5017277;28;19921;-73
2022/10/24 11:51:32;;;;;;;;;;;20.10;99.90;;;;;;4994139;28;19924;-73
2022/10/24 11:54:01;;;;;;;;;;;20.50;99.90;;;;;;5014138;28;19921;-73
2022/10/24 11:56:30;;;;;;;;;;;20.70;99.90;;;;;;5018255;28;19917;-73
2022/10/24 11:58:58;;;;;;;;;;;21.10;99.90;;;;;;5033519;28;20023;-73
2022/10/24 12:01:40;;;;;;;;;;;21.40;99.90;;;;;;5022029;28;19963;-73
2022/10/24 12:04:16;;;;;;;;;;;21.00;99.90;;;;;;5021191;28;19917;-74
2022/10/24 12:07:14;;;;;;;;;;;20.50;99.90;;;;;;5029058;28;19963;-74
2022/10/24 12:09:49;;;;;;;;;;;20.30;99.90;;;;;;5010627;28;20004;-73
2022/10/24 12:12:19;;;;;;;;;;;19.90;99.90;;;;;;5016553;28;20402;-74
2022/10/24 12:14:58;;;;;;;;;;;19.70;99.90;;;;;;5025751;28;19920;-73
2022/10/24 12:17:36;;;;;;;;;;;19.70;99.90;;;;;;5021869;28;20004;-75
2022/10/24 12:20:04;;;;;;;;;;;19.80;99.90;;;;;;5027772;28;19925;-73
2022/10/24 12:22:34;;;;;;;;;;;19.70;99.90;;;;;;5052520;22;20117;-73
2022/10/24 12:25:18;;;;;;;;;;;19.30;99.90;;;;;;5080245;28;20342;-74
2022/10/24 12:27:44;;;;;;;;;;;19.50;99.90;;;;;;4719430;28;9999858;-73
2022/10/24 12:30:09;;;;;;;;;;;19.60;99.90;;;;;;5079205;28;19912;-73
2022/10/24 12:32:39;;;;;;;;;;;19.70;99.90;;;;;;5081714;28;20290;-74
2022/10/24 12:35:24;;;;;;;;;;;19.90;99.90;;;;;;5062055;28;19999;-73
2022/10/24 12:37:49;;;;;;;;;;;20.00;99.90;;;;;;5043003;28;19916;-73
2022/10/24 12:40:33;;;;;;;;;;;19.90;99.90;;;;;;4718796;28;10000118;-72
2022/10/24 12:42:59;;;;;;;;;;;19.90;99.90;;;;;;5075059;28;19913;-73
2022/10/24 12:45:29;;;;;;;;;;;19.50;99.90;;;;;;5081095;28;20451;-73
2022/10/24 12:47:55;;;;;;;;;;;19.50;99.90;;;;;;5077872;28;20310;-73
2022/10/24 12:50:20;;;;;;;;;;;19.60;99.90;;;;;;5068328;28;20532;-73
2022/10/24 12:52:46;;;;;;;;;;;19.80;99.90;;;;;;5071621;28;19923;-75
2022/10/24 12:55:29;;;;;;;;;;;20.00;99.90;;;;;;5070508;28;19961;-73
2022/10/24 12:57:55;;;;;;;;;;;20.30;99.90;;;;;;5079106;28;19927;-73
2022/10/24 13:00:28;;;;;;;;;;;20.30;99.90;;;;;;5080053;28;19916;-74
2022/10/24 13:02:56;;;;;;;;;;;20.10;99.90;;;;;;5073982;28;19912;-73
2022/10/24 13:05:47;;;;;;;;;;;19.80;99.90;;;;;;5059128;28;19924;-72
2022/10/24 13:08:29;;;;;;;;;;;19.40;99.90;;;;;;5079639;28;19947;-72
2022/10/24 13:10:57;;;;;;;;;;;18.90;99.90;;;;;;5075642;28;19937;-74
2022/10/24 13:13:41;;;;;;;;;;;18.70;99.90;;;;;;5077215;28;20382;-74
2022/10/24 13:16:14;;;;;;;;;;;18.50;99.90;;;;;;5080730;28;19916;-74
2022/10/24 13:18:39;;;;;;;;;;;18.30;99.90;;;;;;5077800;28;20451;-74
2022/10/24 13:21:17;;;;;;;;;;;18.30;99.90;;;;;;5077213;28;19916;-74
2022/10/24 13:23:46;;;;;;;;;;;18.50;99.90;;;;;;5072315;28;20364;-74
2022/10/24 13:26:32;;;;;;;;;;;18.70;99.90;;;;;;5058219;28;20433;-74
2022/10/24 13:28:57;;;;;;;;;;;18.90;99.90;;;;;;5030501;28;20007;-73
2022/10/24 13:31:23;;;;;;;;;;;19.00;99.90;;;;;;5077763;28;20290;-74
2022/10/24 13:33:48;;;;;;;;;;;19.00;99.90;;;;;;5070262;28;19917;-76
2022/10/24 13:36:18;;;;;;;;;;;19.00;99.90;;;;;;5044646;28;20391;-75
2022/10/24 13:38:53;;;;;;;;;;;18.80;99.90;;;;;;5072931;28;19924;-73
2022/10/24 13:41:22;;;;;;;;;;;18.90;99.90;;;;;;5067546;28;19916;-77
2022/10/24 13:43:49;;;;;;;;;;;19.20;99.90;;;;;;5046187;28;19924;-74
2022/10/24 13:46:24;;;;;;;;;;;19.10;99.90;;;;;;5056962;28;20379;-75
2022/10/24 13:48:51;;;;;;;;;;;19.10;99.90;;;;;;5067208;28;20603;-77
2022/10/24 13:51:24;;;;;;;;;;;19.10;99.90;;;;;;5081796;28;19973;-74
2022/10/24 13:54:10;;;;;;;;;;;19.20;99.90;;;;;;5065261;28;19919;-74
2022/10/24 13:56:37;;;;;;;;;;;19.10;99.90;;;;;;5076119;28;19916;-76
2022/10/24 13:59:02;;;;;;;;;;;18.90;99.90;;;;;;5082280;28;20279;-75
2022/10/24 14:01:31;;;;;;;;;;;18.80;99.90;;;;;;5083825;28;20711;-74
2022/10/24 14:03:59;;;;;;;;;;;18.80;99.90;;;;;;5061232;28;19995;-74
2022/10/24 14:06:26;;;;;;;;;;;18.60;99.90;;;;;;5064996;28;19916;-77
2022/10/24 14:08:52;;;;;;;;;;;18.30;99.90;;;;;;5067908;28;19952;-77
2022/10/24 14:11:19;;;;;;;;;;;18.20;99.90;;;;;;5048769;28;19916;-76
2022/10/24 14:13:49;;;;;;;;;;;18.30;99.90;;;;;;5071406;28;20022;-74
2022/10/24 14:16:15;;;;;;;;;;;18.40;99.90;;;;;;5065499;28;20018;-74
2022/10/24 14:18:41;;;;;;;;;;;18.60;99.90;;;;;;5082641;28;20089;-73
2022/10/24 14:21:17;;;;;;;;;;;18.70;99.90;;;;;;5083491;28;19920;-74
2022/10/24 14:23:52;;;;;;;;;;;18.60;99.90;;;;;;5068440;28;19924;-74